DAL1152 KPHX-KDEN
Flight info
| Callsign | DAL1152 |
|---|---|
| Flight time | 1h 10m |
| Altitude | 35000 |
| Route | MRBIL1 JARPA CRUDD TBARR4 |
| Aircraft | A320/M-SDE3FGHIRWY/LB1 |
Departure
| Time | 2026-05-05 17:17 |
|---|---|
| Airport | Phoenix Sky Harbor International Airport (KPHX) |
Arrival
| Time | 2026-05-05 18:27 |
|---|---|
| Airport | Denver International Airport (KDEN) |
| Time | Latitude | Longitude | Altitude | Speed | Heading |
|---|---|---|---|---|---|
| 2026-05-05 16:28 | 33.43814 | -111.99630 | 1117 ft | 0 kts | 244° |
| 2026-05-05 17:07 | 33.43818 | -111.99619 | 1117 ft | 4 kts | 250° |
| 2026-05-05 17:07 | 33.43822 | -111.99590 | 1119 ft | 4 kts | 296° |
| 2026-05-05 17:07 | 33.43808 | -111.99576 | 1123 ft | 1 kts | 360° |
| 2026-05-05 17:08 | 33.43803 | -111.99576 | 1116 ft | 0 kts | 360° |
| 2026-05-05 17:10 | 33.43826 | -111.99577 | 1120 ft | 2 kts | 360° |
| 2026-05-05 17:10 | 33.43827 | -111.99577 | 1120 ft | 0 kts | 360° |
| 2026-05-05 17:12 | 33.43840 | -111.99577 | 1120 ft | 7 kts | 360° |
| 2026-05-05 17:12 | 33.43900 | -111.99524 | 1121 ft | 14 kts | 72° |
| 2026-05-05 17:12 | 33.43904 | -111.99417 | 1126 ft | 12 kts | 90° |
| 2026-05-05 17:12 | 33.43904 | -111.99320 | 1126 ft | 11 kts | 90° |
| 2026-05-05 17:13 | 33.43886 | -111.99239 | 1122 ft | 11 kts | 136° |
| 2026-05-05 17:13 | 33.43802 | -111.99226 | 1122 ft | 12 kts | 180° |
| 2026-05-05 17:13 | 33.43719 | -111.99226 | 1120 ft | 11 kts | 180° |
| 2026-05-05 17:13 | 33.43645 | -111.99226 | 1119 ft | 10 kts | 180° |
| 2026-05-05 17:14 | 33.43581 | -111.99226 | 1121 ft | 8 kts | 180° |
| 2026-05-05 17:14 | 33.43517 | -111.99226 | 1120 ft | 11 kts | 180° |
| 2026-05-05 17:14 | 33.43440 | -111.99237 | 1121 ft | 12 kts | 197° |
| 2026-05-05 17:14 | 33.43358 | -111.99248 | 1115 ft | 12 kts | 180° |
| 2026-05-05 17:15 | 33.43285 | -111.99247 | 1125 ft | 9 kts | 187° |
| 2026-05-05 17:15 | 33.43231 | -111.99257 | 1120 ft | 6 kts | 194° |
| 2026-05-05 17:15 | 33.43175 | -111.99301 | 1132 ft | 16 kts | 218° |
| 2026-05-05 17:15 | 33.43113 | -111.99395 | 1133 ft | 15 kts | 251° |
| 2026-05-05 17:16 | 33.43103 | -111.99576 | 1132 ft | 45 kts | 269° |
| 2026-05-05 17:16 | 33.43103 | -112.00242 | 1132 ft | 111 kts | 270° |
| 2026-05-05 17:16 | 33.43105 | -112.01389 | 1135 ft | 162 kts | 270° |
| 2026-05-05 17:16 | 33.43106 | -112.02806 | 1597 ft | 175 kts | 268° |
| 2026-05-05 17:17 | 33.43128 | -112.04276 | 2410 ft | 175 kts | 270° |
| 2026-05-05 17:17 | 33.43175 | -112.05736 | 3167 ft | 180 kts | 271° |
| 2026-05-05 17:17 | 33.43233 | -112.07322 | 3521 ft | 202 kts | 270° |
| 2026-05-05 17:17 | 33.43277 | -112.09104 | 3842 ft | 226 kts | 270° |
| 2026-05-05 17:18 | 33.43317 | -112.11047 | 4532 ft | 236 kts | 270° |
| 2026-05-05 17:18 | 33.43363 | -112.13039 | 5366 ft | 241 kts | 270° |
| 2026-05-05 17:18 | 33.43414 | -112.15062 | 6249 ft | 245 kts | 269° |
| 2026-05-05 17:18 | 33.43631 | -112.17100 | 7081 ft | 253 kts | 287° |
| 2026-05-05 17:19 | 33.44651 | -112.18842 | 7902 ft | 264 kts | 319° |
| 2026-05-05 17:19 | 33.46364 | -112.19698 | 8713 ft | 276 kts | 353° |
| 2026-05-05 17:19 | 33.48280 | -112.19732 | 9551 ft | 281 kts | 359° |
| 2026-05-05 17:19 | 33.50252 | -112.19693 | 10321 ft | 286 kts | 359° |
| 2026-05-05 17:20 | 33.52287 | -112.19637 | 11077 ft | 292 kts | 1° |
| 2026-05-05 17:20 | 33.54331 | -112.19239 | 11636 ft | 307 kts | 12° |
| 2026-05-05 17:20 | 33.56456 | -112.18616 | 11913 ft | 330 kts | 13° |
| 2026-05-05 17:20 | 33.58765 | -112.17925 | 12191 ft | 353 kts | 14° |
| 2026-05-05 17:21 | 33.61079 | -112.16795 | 12748 ft | 365 kts | 30° |
| 2026-05-05 17:21 | 33.63150 | -112.15006 | 13448 ft | 370 kts | 44° |
| 2026-05-05 17:21 | 33.64951 | -112.12778 | 14108 ft | 374 kts | 48° |
| 2026-05-05 17:22 | 33.68579 | -112.08161 | 15400 ft | 386 kts | 48° |
| 2026-05-05 17:22 | 33.70435 | -112.05798 | 16057 ft | 391 kts | 48° |
| 2026-05-05 17:22 | 33.72309 | -112.03409 | 16722 ft | 395 kts | 48° |
| 2026-05-05 17:22 | 33.74202 | -112.00998 | 17423 ft | 398 kts | 48° |
| 2026-05-05 17:23 | 33.75984 | -111.98433 | 17987 ft | 402 kts | 54° |
| 2026-05-05 17:23 | 33.77686 | -111.95746 | 18558 ft | 407 kts | 54° |
| 2026-05-05 17:23 | 33.79409 | -111.93025 | 19096 ft | 412 kts | 54° |
| 2026-05-05 17:23 | 33.81158 | -111.90259 | 19614 ft | 418 kts | 54° |
| 2026-05-05 17:24 | 33.82933 | -111.87451 | 19980 ft | 429 kts | 54° |
| 2026-05-05 17:24 | 33.84772 | -111.84541 | 20164 ft | 443 kts | 54° |
| 2026-05-05 17:24 | 33.86655 | -111.81566 | 20585 ft | 451 kts | 54° |
| 2026-05-05 17:24 | 33.88567 | -111.78542 | 21028 ft | 456 kts | 54° |
| 2026-05-05 17:25 | 33.90498 | -111.75481 | 21485 ft | 462 kts | 54° |
| 2026-05-05 17:25 | 33.91130 | -111.74479 | 21629 ft | 464 kts | 54° |
| 2026-05-05 17:25 | 33.93762 | -111.70307 | 22213 ft | 471 kts | 54° |
| 2026-05-05 17:25 | 33.95753 | -111.67154 | 22664 ft | 476 kts | 53° |
| 2026-05-05 17:26 | 33.97768 | -111.63967 | 23118 ft | 481 kts | 52° |
| 2026-05-05 17:26 | 34.00818 | -111.60043 | 23632 ft | 487 kts | 40° |
| 2026-05-05 17:26 | 34.02594 | -111.58295 | 23836 ft | 490 kts | 34° |
| 2026-05-05 17:26 | 34.05450 | -111.56024 | 24215 ft | 493 kts | 29° |
| 2026-05-05 17:27 | 34.08366 | -111.53811 | 24546 ft | 498 kts | 30° |
| 2026-05-05 17:27 | 34.11271 | -111.51594 | 24884 ft | 503 kts | 30° |
| 2026-05-05 17:27 | 34.14232 | -111.49321 | 25207 ft | 507 kts | 30° |
| 2026-05-05 17:27 | 34.17226 | -111.47016 | 25478 ft | 512 kts | 30° |
| 2026-05-05 17:28 | 34.20245 | -111.44686 | 25781 ft | 516 kts | 29° |
| 2026-05-05 17:28 | 34.23278 | -111.42340 | 26086 ft | 520 kts | 29° |
| 2026-05-05 17:28 | 34.26342 | -111.39967 | 26395 ft | 525 kts | 29° |
| 2026-05-05 17:28 | 34.29428 | -111.37581 | 26683 ft | 529 kts | 29° |
| 2026-05-05 17:29 | 34.32547 | -111.35173 | 26964 ft | 533 kts | 29° |
| 2026-05-05 17:29 | 34.35681 | -111.32756 | 27353 ft | 535 kts | 29° |
| 2026-05-05 17:29 | 34.38826 | -111.30325 | 27662 ft | 538 kts | 29° |
| 2026-05-05 17:29 | 34.41990 | -111.27877 | 27960 ft | 540 kts | 29° |
| 2026-05-05 17:30 | 34.45130 | -111.25437 | 28717 ft | 534 kts | 29° |
| 2026-05-05 17:30 | 34.48245 | -111.23011 | 29076 ft | 536 kts | 28° |
| 2026-05-05 17:30 | 34.51401 | -111.20556 | 29379 ft | 539 kts | 28° |
| 2026-05-05 17:30 | 34.54576 | -111.18088 | 29665 ft | 543 kts | 28° |
| 2026-05-05 17:31 | 34.57771 | -111.15607 | 29952 ft | 548 kts | 28° |
| 2026-05-05 17:31 | 34.60978 | -111.13064 | 30146 ft | 553 kts | 32° |
| 2026-05-05 17:31 | 34.63983 | -111.10106 | 30469 ft | 557 kts | 41° |
| 2026-05-05 17:31 | 34.66741 | -111.06795 | 30778 ft | 559 kts | 44° |
| 2026-05-05 17:32 | 34.69497 | -111.03448 | 31011 ft | 561 kts | 44° |
| 2026-05-05 17:32 | 34.72268 | -111.00094 | 31232 ft | 564 kts | 43° |
| 2026-05-05 17:32 | 34.75051 | -110.96731 | 31485 ft | 566 kts | 43° |
| 2026-05-05 17:32 | 34.77845 | -110.93352 | 31813 ft | 566 kts | 43° |
| 2026-05-05 17:33 | 34.80614 | -110.90002 | 32142 ft | 567 kts | 43° |
| 2026-05-05 17:33 | 34.83410 | -110.86612 | 32439 ft | 568 kts | 43° |
| 2026-05-05 17:33 | 34.86213 | -110.83206 | 32771 ft | 569 kts | 43° |
| 2026-05-05 17:33 | 34.89010 | -110.79799 | 33082 ft | 569 kts | 43° |
| 2026-05-05 17:34 | 34.91816 | -110.76378 | 33387 ft | 571 kts | 43° |
| 2026-05-05 17:34 | 34.94635 | -110.72937 | 33759 ft | 571 kts | 43° |
| 2026-05-05 17:34 | 34.97445 | -110.69504 | 34055 ft | 572 kts | 43° |
| 2026-05-05 17:34 | 35.00252 | -110.66070 | 34340 ft | 572 kts | 43° |
| 2026-05-05 17:35 | 35.03052 | -110.62642 | 34683 ft | 570 kts | 43° |
| 2026-05-05 17:35 | 35.05848 | -110.59219 | 34816 ft | 569 kts | 43° |
| 2026-05-05 17:35 | 35.08658 | -110.55778 | 34875 ft | 575 kts | 43° |
| 2026-05-05 17:36 | 35.14297 | -110.48862 | 34872 ft | 580 kts | 43° |
| 2026-05-05 17:36 | 35.20006 | -110.41844 | 34876 ft | 582 kts | 43° |
| 2026-05-05 17:37 | 35.25703 | -110.34822 | 34849 ft | 581 kts | 44° |
| 2026-05-05 17:37 | 35.31397 | -110.27789 | 34876 ft | 581 kts | 44° |
| 2026-05-05 17:38 | 35.37077 | -110.20744 | 34876 ft | 581 kts | 44° |
| 2026-05-05 17:38 | 35.42748 | -110.13697 | 34875 ft | 581 kts | 44° |
| 2026-05-05 17:39 | 35.48421 | -110.06646 | 34856 ft | 581 kts | 44° |
| 2026-05-05 17:39 | 35.54104 | -109.99577 | 34896 ft | 581 kts | 44° |
| 2026-05-05 17:40 | 35.59779 | -109.92487 | 34892 ft | 581 kts | 44° |
| 2026-05-05 17:40 | 35.65438 | -109.85399 | 34886 ft | 581 kts | 44° |
| 2026-05-05 17:41 | 35.71102 | -109.78305 | 34866 ft | 581 kts | 43° |
| 2026-05-05 17:41 | 35.76971 | -109.71576 | 34862 ft | 579 kts | 38° |
| 2026-05-05 17:42 | 35.83100 | -109.65157 | 34871 ft | 579 kts | 37° |
| 2026-05-05 17:42 | 35.89221 | -109.58703 | 34866 ft | 579 kts | 38° |
| 2026-05-05 17:43 | 35.95240 | -109.52098 | 34871 ft | 579 kts | 39° |
| 2026-05-05 17:43 | 36.01217 | -109.45430 | 34846 ft | 579 kts | 39° |
| 2026-05-05 17:44 | 36.07219 | -109.38792 | 34854 ft | 578 kts | 38° |
| 2026-05-05 17:44 | 36.13233 | -109.32186 | 34867 ft | 577 kts | 38° |
| 2026-05-05 17:45 | 36.19225 | -109.25577 | 34873 ft | 577 kts | 39° |
| 2026-05-05 17:45 | 36.25195 | -109.18954 | 34863 ft | 575 kts | 39° |
| 2026-05-05 17:46 | 36.31119 | -109.12368 | 34859 ft | 575 kts | 39° |
| 2026-05-05 17:46 | 36.37076 | -109.05748 | 34818 ft | 574 kts | 38° |
| 2026-05-05 17:47 | 36.43021 | -108.99122 | 34845 ft | 574 kts | 39° |
| 2026-05-05 17:47 | 36.48943 | -108.92488 | 34827 ft | 573 kts | 38° |
| 2026-05-05 17:48 | 36.54872 | -108.85839 | 34825 ft | 573 kts | 39° |
| 2026-05-05 17:48 | 36.60794 | -108.79207 | 34820 ft | 573 kts | 39° |
| 2026-05-05 17:49 | 36.66715 | -108.72569 | 34803 ft | 572 kts | 38° |
| 2026-05-05 17:49 | 36.72614 | -108.65915 | 34845 ft | 571 kts | 39° |
| 2026-05-05 17:50 | 36.78486 | -108.59260 | 34868 ft | 570 kts | 39° |
| 2026-05-05 17:50 | 36.84356 | -108.52618 | 34885 ft | 570 kts | 39° |
| 2026-05-05 17:51 | 36.90194 | -108.46002 | 34893 ft | 570 kts | 39° |
| 2026-05-05 17:51 | 36.96058 | -108.39339 | 34870 ft | 569 kts | 39° |
| 2026-05-05 17:52 | 37.01903 | -108.32675 | 34866 ft | 569 kts | 39° |
| 2026-05-05 17:52 | 37.07744 | -108.26006 | 34853 ft | 568 kts | 39° |
| 2026-05-05 17:53 | 37.13573 | -108.19343 | 34844 ft | 568 kts | 39° |
| 2026-05-05 17:53 | 37.19412 | -108.12641 | 34839 ft | 568 kts | 39° |
| 2026-05-05 17:54 | 37.25242 | -108.05934 | 34858 ft | 568 kts | 39° |
| 2026-05-05 17:54 | 37.31065 | -107.99218 | 34861 ft | 567 kts | 39° |
| 2026-05-05 17:55 | 37.36882 | -107.92512 | 34854 ft | 566 kts | 39° |
| 2026-05-05 17:55 | 37.42683 | -107.85809 | 34839 ft | 566 kts | 39° |
| 2026-05-05 17:56 | 37.48467 | -107.79096 | 34832 ft | 566 kts | 39° |
| 2026-05-05 17:56 | 37.54215 | -107.72406 | 34834 ft | 565 kts | 39° |
| 2026-05-05 17:57 | 37.59978 | -107.65693 | 34847 ft | 563 kts | 39° |
| 2026-05-05 17:57 | 37.65734 | -107.58976 | 34847 ft | 563 kts | 39° |
| 2026-05-05 17:58 | 37.71474 | -107.52264 | 34839 ft | 562 kts | 40° |
| 2026-05-05 17:58 | 37.77213 | -107.45542 | 34835 ft | 562 kts | 40° |
| 2026-05-05 17:59 | 37.82930 | -107.38801 | 34839 ft | 562 kts | 40° |
| 2026-05-05 17:59 | 37.88637 | -107.32051 | 34828 ft | 561 kts | 40° |
| 2026-05-05 18:00 | 37.94301 | -107.25346 | 34812 ft | 560 kts | 40° |
| 2026-05-05 18:00 | 37.99996 | -107.18601 | 34795 ft | 560 kts | 40° |
| 2026-05-05 18:01 | 38.05675 | -107.11849 | 34789 ft | 560 kts | 40° |
| 2026-05-05 18:01 | 38.11359 | -107.05067 | 34799 ft | 559 kts | 40° |
| 2026-05-05 18:02 | 38.16767 | -106.97958 | 34772 ft | 562 kts | 48° |
| 2026-05-05 18:02 | 38.21793 | -106.90317 | 34785 ft | 562 kts | 48° |
| 2026-05-05 18:03 | 38.26805 | -106.82696 | 34756 ft | 562 kts | 48° |
| 2026-05-05 18:03 | 38.31822 | -106.75068 | 34763 ft | 562 kts | 48° |
| 2026-05-05 18:04 | 38.36833 | -106.67425 | 34742 ft | 562 kts | 48° |
| 2026-05-05 18:04 | 38.41843 | -106.59739 | 34780 ft | 562 kts | 48° |
| 2026-05-05 18:05 | 38.46805 | -106.52110 | 34771 ft | 562 kts | 48° |
| 2026-05-05 18:05 | 38.51796 | -106.44429 | 34792 ft | 562 kts | 48° |
| 2026-05-05 18:06 | 38.56787 | -106.36747 | 34825 ft | 561 kts | 48° |
| 2026-05-05 18:06 | 38.61777 | -106.29049 | 34594 ft | 563 kts | 48° |
| 2026-05-05 18:06 | 38.64276 | -106.25178 | 34364 ft | 564 kts | 48° |
| 2026-05-05 18:07 | 38.66772 | -106.21310 | 34158 ft | 564 kts | 47° |
| 2026-05-05 18:07 | 38.69278 | -106.17455 | 33977 ft | 563 kts | 47° |
| 2026-05-05 18:07 | 38.71800 | -106.13599 | 33754 ft | 563 kts | 47° |
| 2026-05-05 18:07 | 38.74318 | -106.09763 | 32960 ft | 564 kts | 47° |
| 2026-05-05 18:08 | 38.76827 | -106.05937 | 32335 ft | 554 kts | 47° |
| 2026-05-05 18:08 | 38.79269 | -106.02199 | 31833 ft | 543 kts | 48° |
| 2026-05-05 18:08 | 38.81640 | -105.98557 | 31334 ft | 534 kts | 48° |
| 2026-05-05 18:08 | 38.83995 | -105.94931 | 30559 ft | 524 kts | 48° |
| 2026-05-05 18:09 | 38.86302 | -105.91375 | 29684 ft | 513 kts | 48° |
| 2026-05-05 18:09 | 38.88559 | -105.87889 | 28776 ft | 500 kts | 48° |
| 2026-05-05 18:09 | 38.90757 | -105.84486 | 27841 ft | 488 kts | 48° |
| 2026-05-05 18:09 | 38.92898 | -105.81158 | 27338 ft | 479 kts | 48° |
| 2026-05-05 18:10 | 38.94999 | -105.77878 | 26921 ft | 472 kts | 48° |
| 2026-05-05 18:10 | 38.97063 | -105.74650 | 26551 ft | 462 kts | 49° |
| 2026-05-05 18:10 | 38.99070 | -105.71507 | 25944 ft | 450 kts | 48° |
| 2026-05-05 18:10 | 39.00384 | -105.69451 | 25124 ft | 447 kts | 48° |
| 2026-05-05 18:11 | 39.02338 | -105.66393 | 24276 ft | 437 kts | 48° |
| 2026-05-05 18:11 | 39.04249 | -105.63413 | 23834 ft | 429 kts | 48° |
| 2026-05-05 18:11 | 39.06157 | -105.60452 | 23601 ft | 429 kts | 47° |
| 2026-05-05 18:11 | 39.08063 | -105.57500 | 23350 ft | 428 kts | 47° |
| 2026-05-05 18:12 | 39.09956 | -105.54567 | 22896 ft | 424 kts | 48° |
| 2026-05-05 18:12 | 39.11832 | -105.51648 | 22468 ft | 421 kts | 48° |
| 2026-05-05 18:12 | 39.13674 | -105.48774 | 22229 ft | 412 kts | 48° |
| 2026-05-05 18:12 | 39.15487 | -105.45940 | 21736 ft | 408 kts | 48° |
| 2026-05-05 18:13 | 39.17285 | -105.43107 | 21281 ft | 404 kts | 48° |
| 2026-05-05 18:13 | 39.19036 | -105.40324 | 20505 ft | 396 kts | 49° |
| 2026-05-05 18:13 | 39.20755 | -105.37584 | 19935 ft | 391 kts | 49° |
| 2026-05-05 18:13 | 39.22460 | -105.34859 | 19423 ft | 388 kts | 49° |
| 2026-05-05 18:14 | 39.24148 | -105.32157 | 18882 ft | 385 kts | 49° |
| 2026-05-05 18:14 | 39.25837 | -105.29464 | 18397 ft | 385 kts | 49° |
| 2026-05-05 18:14 | 39.27397 | -105.26722 | 18279 ft | 374 kts | 58° |
| 2026-05-05 18:14 | 39.28481 | -105.23724 | 18140 ft | 365 kts | 70° |
| 2026-05-05 18:15 | 39.29059 | -105.20571 | 17850 ft | 359 kts | 81° |
| 2026-05-05 18:15 | 39.29424 | -105.17440 | 17215 ft | 355 kts | 81° |
| 2026-05-05 18:15 | 39.29785 | -105.14325 | 16774 ft | 350 kts | 81° |
| 2026-05-05 18:15 | 39.30146 | -105.11219 | 16360 ft | 347 kts | 81° |
| 2026-05-05 18:16 | 39.30503 | -105.08149 | 15961 ft | 346 kts | 81° |
| 2026-05-05 18:16 | 39.30861 | -105.05075 | 15568 ft | 345 kts | 81° |
| 2026-05-05 18:16 | 39.31220 | -105.02006 | 15156 ft | 344 kts | 82° |
| 2026-05-05 18:16 | 39.31608 | -104.98989 | 14716 ft | 339 kts | 79° |
| 2026-05-05 18:17 | 39.32099 | -104.96046 | 14235 ft | 330 kts | 76° |
| 2026-05-05 18:17 | 39.32630 | -104.93263 | 14164 ft | 309 kts | 75° |
| 2026-05-05 18:17 | 39.33154 | -104.90620 | 14072 ft | 300 kts | 75° |
| 2026-05-05 18:17 | 39.33667 | -104.88035 | 13947 ft | 293 kts | 74° |
| 2026-05-05 18:18 | 39.34232 | -104.85521 | 13695 ft | 292 kts | 71° |
| 2026-05-05 18:18 | 39.34865 | -104.83029 | 13393 ft | 291 kts | 70° |
| 2026-05-05 18:18 | 39.35514 | -104.80569 | 13122 ft | 289 kts | 71° |
| 2026-05-05 18:18 | 39.36163 | -104.78119 | 12836 ft | 287 kts | 71° |
| 2026-05-05 18:19 | 39.36814 | -104.75660 | 12422 ft | 290 kts | 70° |
| 2026-05-05 18:19 | 39.37732 | -104.73375 | 12054 ft | 292 kts | 52° |
| 2026-05-05 18:19 | 39.39186 | -104.71561 | 11691 ft | 291 kts | 33° |
| 2026-05-05 18:19 | 39.40965 | -104.70327 | 11347 ft | 290 kts | 25° |
| 2026-05-05 18:20 | 39.42841 | -104.69406 | 11004 ft | 288 kts | 11° |
| 2026-05-05 18:20 | 39.44801 | -104.69198 | 10678 ft | 276 kts | 359° |
| 2026-05-05 18:20 | 39.46690 | -104.69181 | 10366 ft | 266 kts | 0° |
| 2026-05-05 18:20 | 39.48516 | -104.69163 | 10068 ft | 260 kts | 1° |
| 2026-05-05 18:21 | 39.50323 | -104.69139 | 9972 ft | 259 kts | 1° |
| 2026-05-05 18:21 | 39.52128 | -104.69116 | 9988 ft | 260 kts | 1° |
| 2026-05-05 18:21 | 39.53933 | -104.69095 | 9995 ft | 259 kts | 0° |
| 2026-05-05 18:21 | 39.55733 | -104.69074 | 9993 ft | 260 kts | 0° |
| 2026-05-05 18:22 | 39.57544 | -104.69054 | 9993 ft | 259 kts | 0° |
| 2026-05-05 18:22 | 39.59350 | -104.69033 | 9986 ft | 260 kts | 0° |
| 2026-05-05 18:22 | 39.61158 | -104.69012 | 9989 ft | 259 kts | 0° |
| 2026-05-05 18:22 | 39.62960 | -104.68991 | 9986 ft | 260 kts | 0° |
| 2026-05-05 18:23 | 39.64768 | -104.68970 | 9753 ft | 260 kts | 1° |
| 2026-05-05 18:23 | 39.66572 | -104.68949 | 9397 ft | 259 kts | 1° |
| 2026-05-05 18:23 | 39.68348 | -104.68929 | 9039 ft | 257 kts | 1° |
| 2026-05-05 18:23 | 39.70132 | -104.68908 | 8676 ft | 255 kts | 2° |
| 2026-05-05 18:24 | 39.71874 | -104.68889 | 8330 ft | 245 kts | 3° |
| 2026-05-05 18:24 | 39.73543 | -104.68869 | 8005 ft | 232 kts | 2° |
| 2026-05-05 18:24 | 39.75098 | -104.68853 | 7703 ft | 216 kts | 4° |
| 2026-05-05 18:24 | 39.76570 | -104.68836 | 7442 ft | 208 kts | 4° |
| 2026-05-05 18:25 | 39.77972 | -104.68820 | 7160 ft | 195 kts | 5° |
| 2026-05-05 18:25 | 39.78850 | -104.68810 | 7003 ft | 187 kts | 5° |
| 2026-05-05 18:25 | 39.80533 | -104.68790 | 6705 ft | 175 kts | 5° |
| 2026-05-05 18:25 | 39.81733 | -104.68775 | 6447 ft | 170 kts | 4° |
| 2026-05-05 18:26 | 39.82912 | -104.68761 | 6155 ft | 169 kts | 3° |
| 2026-05-05 18:26 | 39.84079 | -104.68747 | 5902 ft | 166 kts | 2° |
| 2026-05-05 18:26 | 39.85229 | -104.68743 | 5689 ft | 166 kts | 0° |
| 2026-05-05 18:26 | 39.86376 | -104.68728 | 5481 ft | 166 kts | 5° |
| 2026-05-05 18:27 | 39.87511 | -104.68716 | 5386 ft | 152 kts | 5° |
| 2026-05-05 18:27 | 39.88319 | -104.68698 | 5366 ft | 73 kts | 1° |
| 2026-05-05 18:27 | 39.88589 | -104.68695 | 5364 ft | 26 kts | 0° |
| 2026-05-05 18:27 | 39.88759 | -104.68643 | 5363 ft | 25 kts | 18° |
| 2026-05-05 18:28 | 39.88870 | -104.68488 | 5364 ft | 14 kts | 151° |
| 2026-05-05 18:28 | 39.88766 | -104.68478 | 5364 ft | 16 kts | 180° |
| 2026-05-05 18:28 | 39.88652 | -104.68479 | 5365 ft | 17 kts | 180° |
| 2026-05-05 18:29 | 39.88530 | -104.68480 | 5364 ft | 18 kts | 180° |
| 2026-05-05 18:29 | 39.88402 | -104.68483 | 5366 ft | 18 kts | 182° |
| 2026-05-05 18:29 | 39.88280 | -104.68485 | 5370 ft | 17 kts | 180° |
| 2026-05-05 18:29 | 39.88162 | -104.68486 | 5372 ft | 17 kts | 179° |
| 2026-05-05 18:30 | 39.88048 | -104.68487 | 5374 ft | 16 kts | 181° |
| 2026-05-05 18:30 | 39.87939 | -104.68488 | 5378 ft | 15 kts | 181° |
| 2026-05-05 18:30 | 39.87831 | -104.68490 | 5382 ft | 16 kts | 181° |
| 2026-05-05 18:30 | 39.87715 | -104.68492 | 5381 ft | 18 kts | 180° |
| 2026-05-05 18:31 | 39.87586 | -104.68492 | 5382 ft | 19 kts | 180° |
| 2026-05-05 18:31 | 39.87449 | -104.68489 | 5381 ft | 21 kts | 179° |
| 2026-05-05 18:31 | 39.87295 | -104.68494 | 5377 ft | 23 kts | 188° |
| 2026-05-05 18:31 | 39.87148 | -104.68499 | 5383 ft | 19 kts | 179° |
| 2026-05-05 18:32 | 39.87012 | -104.68495 | 5384 ft | 20 kts | 179° |
| 2026-05-05 18:32 | 39.86875 | -104.68493 | 5387 ft | 19 kts | 180° |
| 2026-05-05 18:32 | 39.86750 | -104.68494 | 5393 ft | 17 kts | 180° |
| 2026-05-05 18:32 | 39.86640 | -104.68504 | 5391 ft | 15 kts | 184° |
| 2026-05-05 18:33 | 39.86539 | -104.68506 | 5391 ft | 14 kts | 179° |
| 2026-05-05 18:33 | 39.86455 | -104.68504 | 5392 ft | 10 kts | 179° |
| 2026-05-05 18:33 | 39.86361 | -104.68507 | 5393 ft | 19 kts | 182° |
| 2026-05-05 18:33 | 39.86223 | -104.68504 | 5389 ft | 22 kts | 177° |
| 2026-05-05 18:34 | 39.86059 | -104.68492 | 5389 ft | 25 kts | 176° |
| 2026-05-05 18:34 | 39.85905 | -104.68504 | 5384 ft | 24 kts | 186° |
| 2026-05-05 18:34 | 39.85904 | -104.68504 | 5384 ft | 24 kts | 186° |